Time;durP1;ratioP1;P1;durP2;ratioP2;P2;SDS_P1;SDS_P2;PMS_P1;PMS_P2;Temp;Humidity;BMP_temperature;BMP_pressure;BME280_temperature;BME280_humidity;BME280_pressure;Samples;Min_cycle;Max_cycle;Signal;HPM_P1;HPM_P2
2023/12/19 00:00:09;;;;;;;3.53;2.40;;;7.60;99.90;;;;;;6182768;23;20016;-67
2023/12/19 00:02:34;;;;;;;8.02;3.67;;;7.60;99.90;;;;;;6184541;23;20008;-68
2023/12/19 00:05:00;;;;;;;2.67;1.63;;;7.60;99.90;;;;;;6184165;23;20009;-68
2023/12/19 00:07:28;;;;;;;3.08;2.10;;;7.60;99.90;;;;;;6183819;23;20020;-67
2023/12/19 00:09:54;;;;;;;1.85;1.27;;;7.50;99.90;;;;;;6210123;23;20040;-68
2023/12/19 00:12:20;;;;;;;6.10;1.77;;;7.60;99.90;;;;;;6183441;23;20402;-69
2023/12/19 00:14:45;;;;;;;3.60;2.08;;;7.60;99.90;;;;;;6183579;23;20039;-69
2023/12/19 00:17:11;;;;;;;6.90;2.33;;;7.60;99.90;;;;;;6208794;23;20021;-69
2023/12/19 00:19:36;;;;;;;4.25;1.58;;;7.50;99.90;;;;;;6211885;23;20423;-67
2023/12/19 00:22:02;;;;;;;1.67;1.02;;;7.60;99.90;;;;;;6211457;23;20062;-68
2023/12/19 00:24:27;;;;;;;6.03;2.22;;;7.50;99.90;;;;;;6183146;23;20012;-71
2023/12/19 00:26:53;;;;;;;3.13;1.50;;;7.60;99.90;;;;;;6183308;23;20103;-71
2023/12/19 00:29:19;;;;;;;3.70;1.55;;;7.50;99.90;;;;;;6209882;23;20017;-67
2023/12/19 00:31:45;;;;;;;1.27;1.23;;;7.50;99.90;;;;;;6183403;23;20086;-68
2023/12/19 00:34:10;;;;;;;4.25;1.92;;;7.50;99.90;;;;;;6183198;23;20058;-66
2023/12/19 00:36:36;;;;;;;2.13;1.02;;;7.60;99.90;;;;;;6184162;23;20019;-69
2023/12/19 00:39:04;;;;;;;6.00;2.63;;;7.50;99.90;;;;;;6183369;23;20023;-68
2023/12/19 00:41:30;;;;;;;3.80;2.28;;;7.50;99.90;;;;;;6210428;23;20016;-70
2023/12/19 00:43:56;;;;;;;1.30;0.98;;;7.50;99.90;;;;;;6210102;23;20019;-69
2023/12/19 00:46:22;;;;;;;3.08;1.83;;;7.60;99.90;;;;;;6181618;23;20063;-68
2023/12/19 00:48:47;;;;;;;10.35;1.80;;;7.50;99.90;;;;;;6184922;23;20048;-66
2023/12/19 00:51:13;;;;;;;1.73;1.15;;;7.50;99.90;;;;;;6209767;23;20040;-69
2023/12/19 00:53:43;;;;;;;1.42;1.23;;;7.50;99.90;;;;;;6209403;23;20017;-67
2023/12/19 00:56:09;;;;;;;2.72;1.65;;;7.60;99.90;;;;;;6182223;23;20348;-66
2023/12/19 00:58:39;;;;;;;3.00;1.83;;;7.60;99.90;;;;;;6180636;23;20027;-69
2023/12/19 01:01:08;;;;;;;3.20;2.55;;;7.50;99.90;;;;;;6181235;23;20016;-67
2023/12/19 01:03:37;;;;;;;2.45;1.17;;;7.50;99.90;;;;;;6184298;23;20055;-69
2023/12/19 01:06:03;;;;;;;1.40;1.23;;;7.60;99.90;;;;;;6182142;23;20084;-69
2023/12/19 01:08:29;;;;;;;2.88;1.85;;;7.60;99.90;;;;;;6183215;23;20028;-68
2023/12/19 01:10:55;;;;;;;1.63;0.95;;;7.60;99.90;;;;;;6208194;23;20444;-67
2023/12/19 01:13:21;;;;;;;0.68;0.68;;;7.60;99.90;;;;;;6207269;23;20013;-68
2023/12/19 01:15:47;;;;;;;3.65;1.52;;;7.70;99.90;;;;;;6206779;23;20091;-69
2023/12/19 01:18:13;;;;;;;3.05;1.17;;;7.70;99.90;;;;;;6182611;23;20017;-68
2023/12/19 01:20:39;;;;;;;3.47;1.42;;;7.70;99.90;;;;;;6208935;23;20019;-67
2023/12/19 01:23:05;;;;;;;1.92;1.13;;;7.70;99.90;;;;;;6182669;23;20040;-67
2023/12/19 01:25:30;;;;;;;7.93;1.70;;;7.70;99.90;;;;;;6182283;23;20019;-66
2023/12/19 01:27:56;;;;;;;2.22;1.42;;;7.60;99.90;;;;;;6184683;23;20326;-67
2023/12/19 01:30:22;;;;;;;4.03;2.85;;;7.60;99.90;;;;;;6209995;23;20013;-65
2023/12/19 01:32:48;;;;;;;2.05;1.17;;;7.60;99.90;;;;;;6183385;23;20016;-68
2023/12/19 01:35:14;;;;;;;2.65;1.40;;;7.60;99.90;;;;;;6182293;23;20095;-66
2023/12/19 01:37:44;;;;;;;1.33;1.23;;;7.60;99.90;;;;;;6183380;23;20012;-67
2023/12/19 01:40:10;;;;;;;4.40;1.42;;;7.70;99.90;;;;;;6211870;23;20450;-69
2023/12/19 01:42:35;;;;;;;0.88;0.88;;;7.70;99.90;;;;;;6182440;23;20039;-67
2023/12/19 01:45:09;;;;;;;1.52;1.30;;;7.60;99.90;;;;;;6209846;23;20017;-68
2023/12/19 01:47:38;;;;;;;4.13;2.38;;;7.70;99.90;;;;;;6184186;23;20455;-67
2023/12/19 01:50:05;;;;;;;0.90;0.90;;;7.60;99.90;;;;;;6183714;23;20056;-68
2023/12/19 01:52:30;;;;;;;4.80;1.80;;;7.60;99.90;;;;;;6182247;23;20017;-67
2023/12/19 01:54:57;;;;;;;3.20;1.60;;;7.60;99.90;;;;;;6183298;23;20020;-67
2023/12/19 01:57:23;;;;;;;3.30;1.27;;;7.50;99.90;;;;;;6182751;23;20448;-67
2023/12/19 01:59:49;;;;;;;1.70;1.60;;;7.60;99.90;;;;;;6183016;23;20092;-68
2023/12/19 02:02:15;;;;;;;2.40;1.30;;;7.60;99.90;;;;;;6181177;23;20016;-69
2023/12/19 02:04:40;;;;;;;0.88;0.85;;;7.60;99.90;;;;;;6181197;23;20020;-68
2023/12/19 02:07:06;;;;;;;3.10;0.95;;;7.60;99.90;;;;;;6181825;23;20016;-68
2023/12/19 02:09:33;;;;;;;2.42;1.60;;;7.50;99.90;;;;;;6182806;23;20440;-68
2023/12/19 02:11:58;;;;;;;2.55;1.15;;;7.50;99.90;;;;;;6181493;23;20019;-68
2023/12/19 02:14:24;;;;;;;3.65;1.48;;;7.50;99.90;;;;;;6183268;23;20012;-66
2023/12/19 02:16:49;;;;;;;2.97;1.55;;;7.50;99.90;;;;;;6208582;23;20012;-69
2023/12/19 02:19:15;;;;;;;3.65;1.55;;;7.50;99.90;;;;;;6183130;23;20538;-68
2023/12/19 02:21:40;;;;;;;2.22;1.17;;;7.50;99.90;;;;;;6183059;23;20043;-67
2023/12/19 02:24:07;;;;;;;0.95;0.93;;;7.50;99.90;;;;;;6159712;23;20314;-69
2023/12/19 02:26:33;;;;;;;3.08;1.10;;;7.50;99.90;;;;;;6159687;23;20140;-69
2023/12/19 02:28:59;;;;;;;1.50;0.65;;;7.50;99.90;;;;;;6185283;23;20056;-68
2023/12/19 02:31:25;;;;;;;5.88;1.73;;;7.50;99.90;;;;;;6183938;23;20353;-66
2023/12/19 02:33:50;;;;;;;2.10;1.45;;;7.50;99.90;;;;;;6184042;23;20110;-67
2023/12/19 02:36:16;;;;;;;2.50;1.63;;;7.40;99.90;;;;;;6184897;23;20102;-66
2023/12/19 02:38:42;;;;;;;3.22;1.25;;;7.50;99.90;;;;;;6211144;23;20025;-68
2023/12/19 02:41:10;;;;;;;1.70;1.35;;;7.40;99.90;;;;;;6184301;23;20016;-67
2023/12/19 02:43:36;;;;;;;0.80;0.80;;;7.40;99.90;;;;;;6185242;23;20040;-67
2023/12/19 02:46:02;;;;;;;1.25;0.75;;;7.50;99.90;;;;;;6210565;23;20174;-66
2023/12/19 02:48:27;;;;;;;1.65;1.15;;;7.40;99.90;;;;;;6212184;23;20539;-68
2023/12/19 02:50:53;;;;;;;1.55;1.45;;;7.50;99.90;;;;;;6183831;23;20020;-68
2023/12/19 02:53:18;;;;;;;1.10;1.00;;;7.40;99.90;;;;;;6185173;23;20016;-67
2023/12/19 02:55:44;;;;;;;1.63;1.08;;;7.40;99.90;;;;;;6183298;23;20017;-66
2023/12/19 02:58:09;;;;;;;3.80;1.40;;;7.50;99.90;;;;;;6185517;23;20017;-67
2023/12/19 03:00:35;;;;;;;2.03;0.88;;;7.40;99.90;;;;;;6183511;23;20471;-71
2023/12/19 03:03:00;;;;;;;1.25;1.15;;;7.50;99.90;;;;;;6183752;23;20100;-67
2023/12/19 03:05:26;;;;;;;1.38;0.90;;;7.40;99.90;;;;;;6211929;23;20385;-68
2023/12/19 03:07:51;;;;;;;2.10;1.45;;;7.50;99.90;;;;;;6184102;23;20475;-69
2023/12/19 03:10:17;;;;;;;1.35;1.08;;;7.40;99.90;;;;;;6184202;23;20052;-69
2023/12/19 03:12:42;;;;;;;0.57;0.43;;;7.50;99.90;;;;;;6160737;23;20340;-68
2023/12/19 03:15:08;;;;;;;0.77;0.77;;;7.40;99.90;;;;;;6185995;23;20104;-69
2023/12/19 03:17:34;;;;;;;1.17;0.82;;;7.50;99.90;;;;;;6184343;23;20020;-69
2023/12/19 03:19:59;;;;;;;1.70;0.90;;;7.50;99.90;;;;;;6186400;23;20016;-67
2023/12/19 03:22:25;;;;;;;4.90;1.40;;;7.50;99.90;;;;;;6159996;23;20013;-73
2023/12/19 03:24:51;;;;;;;1.25;1.00;;;7.50;99.90;;;;;;6186003;23;20015;-69
2023/12/19 03:27:16;;;;;;;2.50;0.80;;;7.50;99.90;;;;;;6185059;23;20013;-68
2023/12/19 03:29:43;;;;;;;1.75;1.05;;;7.50;99.90;;;;;;6186280;23;20020;-66
2023/12/19 03:32:08;;;;;;;3.15;0.93;;;7.40;99.90;;;;;;6212150;23;20462;-68
2023/12/19 03:34:37;;;;;;;1.77;1.40;;;7.50;99.90;;;;;;6183627;23;20012;-71
2023/12/19 03:37:03;;;;;;;0.30;0.30;;;7.50;99.90;;;;;;6185078;23;20043;-69
2023/12/19 03:39:29;;;;;;;2.50;1.13;;;7.60;99.90;;;;;;6212123;23;20112;-72
2023/12/19 03:41:54;;;;;;;2.45;1.55;;;7.40;99.90;;;;;;6211195;23;20048;-70
2023/12/19 03:44:20;;;;;;;2.63;1.45;;;7.50;99.90;;;;;;6184009;23;20021;-67
2023/12/19 03:46:45;;;;;;;0.88;0.88;;;7.50;99.90;;;;;;6210821;23;20047;-68
2023/12/19 03:49:12;;;;;;;1.08;0.98;;;7.50;99.90;;;;;;6184513;23;20071;-70
2023/12/19 03:51:38;;;;;;;1.48;1.13;;;7.50;99.90;;;;;;6185715;23;20466;-70
2023/12/19 03:54:03;;;;;;;2.10;1.50;;;7.50;99.90;;;;;;6184182;23;20103;-72
2023/12/19 03:56:29;;;;;;;0.75;0.75;;;7.50;99.90;;;;;;6183834;23;20016;-72
2023/12/19 03:58:54;;;;;;;1.77;1.42;;;7.50;99.90;;;;;;6210770;23;20012;-68
2023/12/19 04:01:20;;;;;;;1.08;0.60;;;7.50;99.90;;;;;;6183169;23;20349;-68
2023/12/19 04:03:46;;;;;;;3.47;1.40;;;7.50;99.90;;;;;;6183924;23;20009;-70
2023/12/19 04:06:12;;;;;;;1.92;1.48;;;7.50;99.90;;;;;;6184010;23;20017;-70
2023/12/19 04:08:38;;;;;;;1.10;0.95;;;7.50;99.90;;;;;;6212005;23;20051;-67
2023/12/19 04:11:03;;;;;;;1.55;1.45;;;7.50;99.90;;;;;;6184535;23;20016;-72
2023/12/19 04:13:29;;;;;;;1.27;0.50;;;7.60;99.90;;;;;;6185167;23;20020;-70
2023/12/19 04:15:54;;;;;;;4.80;2.15;;;7.60;99.90;;;;;;6183245;23;20016;-68
2023/12/19 04:18:20;;;;;;;4.30;1.45;;;7.50;99.90;;;;;;6185527;23;20448;-69
2023/12/19 04:20:45;;;;;;;2.42;1.88;;;7.60;99.90;;;;;;6186014;23;20024;-69
2023/12/19 04:23:12;;;;;;;1.85;1.08;;;7.60;99.90;;;;;;6184951;23;20009;-67
2023/12/19 04:25:37;;;;;;;5.22;2.35;;;7.60;99.90;;;;;;6185294;23;20012;-69
2023/12/19 04:28:03;;;;;;;1.67;1.58;;;7.60;99.90;;;;;;6184448;23;20451;-69
2023/12/19 04:30:29;;;;;;;2.03;1.10;;;7.60;99.90;;;;;;6183964;23;20017;-70
2023/12/19 04:32:54;;;;;;;1.08;0.98;;;7.60;99.90;;;;;;6183995;23;20039;-68
2023/12/19 04:35:20;;;;;;;1.85;0.80;;;7.60;99.90;;;;;;6184473;23;20016;-69
2023/12/19 04:37:45;;;;;;;12.30;2.20;;;7.60;99.90;;;;;;6183863;23;20022;-69
2023/12/19 04:40:12;;;;;;;2.83;2.47;;;7.70;99.90;;;;;;6185739;23;20048;-72
2023/12/19 04:42:38;;;;;;;3.05;1.85;;;7.60;99.90;;;;;;6183566;23;20012;-67
2023/12/19 04:45:05;;;;;;;2.42;1.08;;;7.60;99.90;;;;;;6182397;23;20163;-70
2023/12/19 04:47:31;;;;;;;3.25;1.70;;;7.60;99.90;;;;;;6183122;23;20017;-68
2023/12/19 04:49:57;;;;;;;2.08;0.60;;;7.70;99.90;;;;;;6183369;23;20415;-67
2023/12/19 04:52:22;;;;;;;1.20;1.10;;;7.60;99.90;;;;;;6184406;23;20013;-68
2023/12/19 04:54:48;;;;;;;1.05;0.98;;;7.70;99.90;;;;;;6183794;23;20027;-72
2023/12/19 04:57:14;;;;;;;1.40;1.30;;;7.70;99.90;;;;;;6183711;23;20016;-69
2023/12/19 04:59:39;;;;;;;1.05;0.98;;;7.60;99.90;;;;;;6183846;23;20012;-69
2023/12/19 05:02:05;;;;;;;1.33;0.95;;;7.60;99.90;;;;;;6184486;23;20008;-67
2023/12/19 05:04:32;;;;;;;1.92;1.63;;;7.70;99.90;;;;;;6183744;23;20009;-69
2023/12/19 05:06:57;;;;;;;2.22;1.10;;;7.70;99.90;;;;;;6183331;23;20365;-68
2023/12/19 05:09:23;;;;;;;1.13;1.13;;;7.60;99.90;;;;;;6210899;23;20043;-68
2023/12/19 05:11:49;;;;;;;3.53;0.73;;;7.70;99.90;;;;;;6183898;23;20440;-69
2023/12/19 05:14:14;;;;;;;0.30;0.30;;;7.70;99.90;;;;;;6183976;23;20024;-71
2023/12/19 05:16:40;;;;;;;4.03;0.85;;;7.70;99.90;;;;;;6211108;23;20515;-69
2023/12/19 05:19:05;;;;;;;0.73;0.73;;;7.70;99.90;;;;;;6185263;23;20052;-69
2023/12/19 05:21:38;;;;;;;1.48;1.42;;;7.70;99.90;;;;;;6184806;23;20023;-68
2023/12/19 05:24:04;;;;;;;1.95;1.08;;;7.70;99.90;;;;;;6184569;23;20023;-69
2023/12/19 05:26:29;;;;;;;0.88;0.50;;;7.60;99.90;;;;;;6183752;23;20017;-68
2023/12/19 05:28:55;;;;;;;3.55;0.55;;;7.70;99.90;;;;;;6211681;23;20428;-69
2023/12/19 05:31:22;;;;;;;0.73;0.70;;;7.70;99.90;;;;;;6184077;23;20444;-68
2023/12/19 05:33:47;;;;;;;3.42;0.77;;;7.70;99.90;;;;;;6211685;23;20008;-70
2023/12/19 05:36:13;;;;;;;0.70;0.70;;;7.70;99.90;;;;;;6183895;23;20452;-71
2023/12/19 05:38:39;;;;;;;1.65;1.40;;;7.70;99.90;;;;;;6210934;23;20342;-69
2023/12/19 05:41:05;;;;;;;0.55;0.47;;;7.70;99.90;;;;;;6210579;23;20005;-69
2023/12/19 05:43:31;;;;;;;1.90;0.63;;;7.70;99.90;;;;;;6208712;23;20070;-68
2023/12/19 05:45:57;;;;;;;0.73;0.73;;;7.70;99.90;;;;;;6183957;23;20017;-69
2023/12/19 05:48:23;;;;;;;0.93;0.90;;;7.70;99.90;;;;;;6182252;23;20021;-71
2023/12/19 05:50:49;;;;;;;0.90;0.82;;;7.70;99.90;;;;;;6183871;23;20070;-71
2023/12/19 05:53:15;;;;;;;0.80;0.55;;;7.70;99.90;;;;;;6183945;23;20095;-67
2023/12/19 05:55:42;;;;;;;1.25;1.15;;;7.70;99.90;;;;;;6183831;23;20070;-69
2023/12/19 05:58:08;;;;;;;1.77;0.52;;;7.80;99.90;;;;;;6186093;23;20021;-69
2023/12/19 06:00:34;;;;;;;1.52;0.68;;;7.70;99.90;;;;;;6211931;23;20015;-68
2023/12/19 06:03:00;;;;;;;0.30;0.30;;;7.70;99.90;;;;;;6185019;23;20023;-71
2023/12/19 06:05:25;;;;;;;1.17;0.52;;;7.80;99.90;;;;;;6212399;23;20037;-71
2023/12/19 06:07:51;;;;;;;1.65;0.88;;;7.70;99.90;;;;;;6213286;23;20012;-72
2023/12/19 06:10:16;;;;;;;0.32;0.30;;;7.80;99.90;;;;;;6212507;23;20444;-72
2023/12/19 06:12:42;;;;;;;0.45;0.45;;;7.70;99.90;;;;;;6186142;23;20012;-71
2023/12/19 06:15:12;;;;;;;2.13;0.82;;;7.70;99.90;;;;;;6162092;23;20091;-68
2023/12/19 06:17:43;;;;;;;0.38;0.32;;;7.70;99.90;;;;;;6161654;23;20070;-70
2023/12/19 06:20:10;;;;;;;0.30;0.30;;;7.80;99.90;;;;;;6213396;23;20016;-71
2023/12/19 06:22:36;;;;;;;1.60;0.70;;;7.70;99.90;;;;;;6186412;23;20008;-70
2023/12/19 06:25:02;;;;;;;0.50;0.50;;;7.70;99.90;;;;;;6212772;23;20091;-70
2023/12/19 06:27:28;;;;;;;0.73;0.38;;;7.70;99.90;;;;;;6185981;23;20123;-71
2023/12/19 06:29:54;;;;;;;0.80;0.80;;;7.80;99.90;;;;;;6213514;23;20062;-70
2023/12/19 06:32:20;;;;;;;0.30;0.30;;;7.70;99.90;;;;;;6212790;23;20035;-68
2023/12/19 06:34:46;;;;;;;0.50;0.50;;;7.80;99.90;;;;;;6186552;23;20080;-68
2023/12/19 06:37:11;;;;;;;0.45;0.40;;;7.80;99.90;;;;;;6185670;23;20084;-69
2023/12/19 06:39:37;;;;;;;0.65;0.65;;;7.80;99.90;;;;;;6186344;23;20024;-68
2023/12/19 06:42:03;;;;;;;0.85;0.85;;;7.80;99.90;;;;;;6210522;23;20009;-72
2023/12/19 06:44:28;;;;;;;0.70;0.70;;;7.80;99.90;;;;;;6212416;23;20480;-69
2023/12/19 06:46:54;;;;;;;4.85;1.75;;;7.80;99.90;;;;;;6185275;23;20048;-69
2023/12/19 06:49:20;;;;;;;2.00;0.45;;;7.80;99.90;;;;;;6185692;23;20017;-68
2023/12/19 06:51:45;;;;;;;0.60;0.60;;;7.80;99.90;;;;;;6185213;23;20016;-69
2023/12/19 06:54:11;;;;;;;0.30;0.30;;;7.80;99.90;;;;;;6183348;23;20341;-68
2023/12/19 06:56:37;;;;;;;1.63;0.90;;;7.80;99.90;;;;;;6184417;23;20379;-67
2023/12/19 06:59:03;;;;;;;3.50;0.63;;;7.90;99.90;;;;;;6185452;23;20380;-71
2023/12/19 07:01:29;;;;;;;0.40;0.40;;;7.80;99.90;;;;;;6184837;23;20098;-68
2023/12/19 07:03:55;;;;;;;0.45;0.45;;;7.90;99.90;;;;;;6185085;23;20017;-70
2023/12/19 07:06:21;;;;;;;1.20;0.90;;;7.90;99.90;;;;;;6212714;23;20004;-71
2023/12/19 07:08:47;;;;;;;1.55;0.88;;;7.90;99.90;;;;;;6160009;23;20027;-69
2023/12/19 07:11:14;;;;;;;1.25;0.63;;;7.90;99.90;;;;;;6213565;23;20013;-70
2023/12/19 07:13:40;;;;;;;2.63;0.65;;;7.90;99.90;;;;;;6184499;23;20087;-67
2023/12/19 07:16:06;;;;;;;0.30;0.30;;;7.90;99.90;;;;;;6160038;23;20044;-68
2023/12/19 07:18:32;;;;;;;1.27;1.02;;;8.00;99.90;;;;;;6183650;23;20344;-70
2023/12/19 07:20:58;;;;;;;1.02;0.85;;;8.00;99.90;;;;;;6185388;23;20330;-70
2023/12/19 07:23:24;;;;;;;1.83;1.10;;;8.00;99.90;;;;;;6184951;23;20019;-72
2023/12/19 07:25:50;;;;;;;0.50;0.50;;;8.00;99.90;;;;;;6184842;23;20013;-71
2023/12/19 07:28:16;;;;;;;15.75;1.17;;;8.00;99.90;;;;;;6185757;23;20474;-70
2023/12/19 07:30:42;;;;;;;0.80;0.65;;;8.10;99.90;;;;;;6211591;23;20096;-70
2023/12/19 07:33:08;;;;;;;1.00;0.63;;;8.00;99.90;;;;;;6184695;23;20092;-70
2023/12/19 07:35:34;;;;;;;0.70;0.65;;;8.10;99.90;;;;;;6211344;23;20026;-72
2023/12/19 07:38:00;;;;;;;1.42;1.20;;;8.10;99.90;;;;;;6184069;23;20052;-72
2023/12/19 07:40:26;;;;;;;1.80;0.75;;;8.10;99.90;;;;;;6184636;23;20019;-68
2023/12/19 07:42:52;;;;;;;0.75;0.50;;;8.10;99.90;;;;;;6210880;23;20201;-69
2023/12/19 07:45:18;;;;;;;0.60;0.57;;;8.20;99.90;;;;;;6210555;23;20013;-70
2023/12/19 07:47:44;;;;;;;0.40;0.40;;;8.20;99.90;;;;;;6183419;23;20025;-73
2023/12/19 07:50:10;;;;;;;0.65;0.52;;;8.20;99.90;;;;;;6184273;23;20020;-71
2023/12/19 07:52:36;;;;;;;1.20;1.10;;;8.20;99.90;;;;;;6184281;23;20024;-68
2023/12/19 07:55:09;;;;;;;0.50;0.50;;;8.10;99.90;;;;;;6184767;23;20015;-70
2023/12/19 07:57:37;;;;;;;1.25;1.15;;;8.20;99.90;;;;;;6183679;23;20454;-71
2023/12/19 08:00:03;;;;;;;0.10;0.10;;;8.30;99.90;;;;;;6184307;23;20066;-68
2023/12/19 08:02:32;;;;;;;0.70;0.70;;;8.30;99.90;;;;;;6212407;23;20012;-70
2023/12/19 08:04:58;;;;;;;2.00;0.85;;;8.30;99.90;;;;;;6183712;23;20332;-72
2023/12/19 08:07:24;;;;;;;1.27;0.63;;;8.30;99.90;;;;;;6184437;23;20025;-72
2023/12/19 08:09:49;;;;;;;0.35;0.35;;;8.40;99.90;;;;;;6210047;23;20341;-68
2023/12/19 08:12:15;;;;;;;0.40;0.40;;;8.40;99.90;;;;;;6184097;23;20020;-72
2023/12/19 08:14:40;;;;;;;0.30;0.30;;;8.30;99.90;;;;;;6184516;23;20017;-68
2023/12/19 08:17:06;;;;;;;4.60;1.77;;;8.40;99.90;;;;;;6183500;23;20021;-68
2023/12/19 08:19:32;;;;;;;0.47;0.45;;;8.40;99.90;;;;;;6183847;23;20013;-72
2023/12/19 08:21:58;;;;;;;4.32;1.10;;;8.50;99.90;;;;;;6209845;23;20017;-69
2023/12/19 08:24:25;;;;;;;0.65;0.65;;;8.50;99.90;;;;;;6210770;23;20012;-71
2023/12/19 08:26:52;;;;;;;0.50;0.50;;;8.50;99.90;;;;;;6185076;23;20068;-70
2023/12/19 08:29:18;;;;;;;1.38;1.27;;;8.50;99.90;;;;;;6212256;23;20099;-68
2023/12/19 08:31:47;;;;;;;0.10;0.10;;;8.60;99.90;;;;;;6182762;23;20380;-70
2023/12/19 08:34:16;;;;;;;2.10;1.52;;;8.50;99.90;;;;;;6210105;23;20056;-69
2023/12/19 08:36:42;;;;;;;0.95;0.77;;;8.50;99.90;;;;;;6185256;23;20502;-68
2023/12/19 08:39:10;;;;;;;0.20;0.20;;;8.60;99.90;;;;;;6184070;23;20040;-70
2023/12/19 08:41:37;;;;;;;0.68;0.68;;;8.60;99.90;;;;;;6211446;23;20087;-68
2023/12/19 08:44:03;;;;;;;0.80;0.75;;;8.60;99.90;;;;;;6211999;23;20012;-69
2023/12/19 08:46:28;;;;;;;1.65;0.63;;;8.60;99.90;;;;;;6184929;23;20040;-69
2023/12/19 08:48:54;;;;;;;3.65;0.75;;;8.60;99.90;;;;;;6211085;23;20356;-69
2023/12/19 08:51:20;;;;;;;0.65;0.65;;;8.60;99.90;;;;;;6185367;23;20514;-69
2023/12/19 08:53:46;;;;;;;0.75;0.75;;;8.70;99.90;;;;;;6211612;23;20076;-69
2023/12/19 08:56:11;;;;;;;0.55;0.55;;;8.70;99.90;;;;;;6184035;23;20017;-68
2023/12/19 08:58:37;;;;;;;0.75;0.50;;;8.70;99.90;;;;;;6184667;23;20012;-68
2023/12/19 09:01:03;;;;;;;0.80;0.60;;;8.70;99.90;;;;;;6183889;23;20090;-68
2023/12/19 09:03:28;;;;;;;0.20;0.20;;;8.70;99.90;;;;;;6212195;23;20301;-68
2023/12/19 09:05:54;;;;;;;1.02;0.90;;;8.70;99.90;;;;;;6210585;23;20059;-70
2023/12/19 09:08:21;;;;;;;1.23;0.70;;;8.70;99.90;;;;;;6211206;23;20467;-69
2023/12/19 09:10:46;;;;;;;1.92;0.43;;;8.70;99.90;;;;;;6212182;23;20019;-68
2023/12/19 09:13:12;;;;;;;2.42;0.98;;;8.70;99.90;;;;;;6184456;23;20024;-69
2023/12/19 09:15:38;;;;;;;2.30;1.27;;;8.70;99.90;;;;;;6183866;23;20025;-68
2023/12/19 09:18:04;;;;;;;3.70;1.25;;;8.80;99.90;;;;;;6211894;23;20060;-72
2023/12/19 09:20:30;;;;;;;0.95;0.85;;;8.70;99.90;;;;;;6185671;23;20016;-69
2023/12/19 09:22:56;;;;;;;0.55;0.55;;;8.70;99.90;;;;;;6184716;23;20039;-70
2023/12/19 09:25:21;;;;;;;0.28;0.28;;;8.80;99.90;;;;;;6184413;23;20016;-69
2023/12/19 09:27:48;;;;;;;0.55;0.50;;;8.80;99.90;;;;;;6184375;23;20023;-70
2023/12/19 09:30:16;;;;;;;1.55;0.75;;;8.70;99.90;;;;;;6185582;23;20012;-68
2023/12/19 09:32:42;;;;;;;1.85;1.45;;;8.80;99.90;;;;;;6185280;23;20047;-70
2023/12/19 09:35:08;;;;;;;0.93;0.93;;;8.70;99.90;;;;;;6186471;23;20017;-72
2023/12/19 09:37:34;;;;;;;0.85;0.85;;;8.80;99.90;;;;;;6185575;23;20417;-70
2023/12/19 09:40:00;;;;;;;4.43;0.75;;;8.70;99.90;;;;;;6187331;23;20012;-70
2023/12/19 09:42:27;;;;;;;0.45;0.45;;;8.80;99.90;;;;;;6186441;23;20376;-70
2023/12/19 09:44:52;;;;;;;2.88;0.98;;;8.80;99.90;;;;;;6212560;23;20009;-71
2023/12/19 09:47:25;;;;;;;0.63;0.63;;;8.70;99.90;;;;;;6186350;23;20004;-70
2023/12/19 09:49:57;;;;;;;0.40;0.40;;;8.80;99.90;;;;;;6213431;23;20035;-70
2023/12/19 09:52:24;;;;;;;1.45;1.35;;;8.80;99.90;;;;;;6213208;23;20017;-70
2023/12/19 09:54:51;;;;;;;1.55;1.08;;;8.80;99.90;;;;;;6185570;23;20315;-72
2023/12/19 09:57:20;;;;;;;1.02;1.02;;;8.70;99.90;;;;;;6185174;23;20012;-70
2023/12/19 09:59:48;;;;;;;4.47;0.98;;;8.80;99.90;;;;;;6185451;23;20020;-71
2023/12/19 10:02:20;;;;;;;1.45;0.80;;;8.80;99.90;;;;;;6186070;23;20387;-69
2023/12/19 10:04:45;;;;;;;1.77;0.73;;;8.80;99.90;;;;;;6184419;23;20136;-69
2023/12/19 10:07:11;;;;;;;1.50;0.93;;;8.80;99.90;;;;;;6186154;23;20040;-71
2023/12/19 10:09:54;;;;;;;0.63;0.63;;;8.80;99.90;;;;;;6210938;23;20155;-69
2023/12/19 10:12:20;;;;;;;1.52;1.08;;;8.70;99.90;;;;;;6186037;23;20118;-72
2023/12/19 10:14:47;;;;;;;1.00;0.65;;;8.70;99.90;;;;;;6184437;23;20018;-71
2023/12/19 10:17:20;;;;;;;2.30;0.73;;;8.80;99.90;;;;;;6186758;23;20387;-73
2023/12/19 10:19:45;;;;;;;0.60;0.38;;;8.70;99.90;;;;;;6213059;23;20088;-71
2023/12/19 10:22:20;;;;;;;0.63;0.55;;;8.70;99.90;;;;;;6183876;23;20460;-70
2023/12/19 10:24:46;;;;;;;0.98;0.70;;;8.80;99.90;;;;;;6182555;23;20016;-70
2023/12/19 10:27:12;;;;;;;1.05;0.77;;;8.80;99.90;;;;;;6211912;23;20467;-70
2023/12/19 10:29:38;;;;;;;0.32;0.32;;;8.70;99.90;;;;;;6186233;23;20020;-71
2023/12/19 10:32:19;;;;;;;1.45;0.57;;;8.70;99.90;;;;;;6186523;23;20340;-71
2023/12/19 10:34:46;;;;;;;0.30;0.28;;;8.70;99.90;;;;;;6184860;23;20318;-69
2023/12/19 10:37:17;;;;;;;0.88;0.50;;;8.70;99.90;;;;;;6212370;23;20016;-72
2023/12/19 10:39:44;;;;;;;1.45;0.85;;;8.70;99.90;;;;;;6213816;23;20020;-72
2023/12/19 10:42:10;;;;;;;1.95;1.85;;;8.70;99.90;;;;;;6185438;23;20012;-71
2023/12/19 10:44:40;;;;;;;0.52;0.52;;;8.80;99.90;;;;;;6183981;23;20023;-70
2023/12/19 10:47:08;;;;;;;0.40;0.40;;;8.70;99.90;;;;;;6185382;23;20313;-70
2023/12/19 10:49:34;;;;;;;1.35;1.08;;;8.70;99.90;;;;;;6185249;23;20016;-72
2023/12/19 10:52:08;;;;;;;0.47;0.47;;;8.80;99.90;;;;;;6185892;23;20068;-69
2023/12/19 10:54:40;;;;;;;1.75;0.93;;;8.70;99.90;;;;;;6177306;23;20035;-72
2023/12/19 10:57:08;;;;;;;1.03;0.70;;;8.70;99.90;;;;;;6181147;23;20502;-70
2023/12/19 10:59:58;;;;;;;1.33;0.75;;;8.70;99.90;;;;;;6183460;23;20263;-69
2023/12/19 11:02:47;;;;;;;0.73;0.73;;;8.70;99.90;;;;;;6184590;23;20490;-70
2023/12/19 11:05:36;;;;;;;0.77;0.75;;;8.70;99.90;;;;;;6210949;23;20093;-71
2023/12/19 11:08:04;;;;;;;0.40;0.40;;;8.80;99.90;;;;;;6211312;23;20020;-71
2023/12/19 11:10:36;;;;;;;1.38;0.38;;;8.70;99.90;;;;;;6184142;23;20467;-71
2023/12/19 11:13:03;;;;;;;0.77;0.77;;;8.80;99.90;;;;;;6184948;23;20341;-70
2023/12/19 11:15:30;;;;;;;14.40;2.35;;;8.80;99.90;;;;;;6183514;23;20016;-68
2023/12/19 11:18:04;;;;;;;1.05;0.80;;;8.80;99.90;;;;;;6182623;23;20344;-71
2023/12/19 11:20:42;;;;;;;0.47;0.47;;;8.80;99.90;;;;;;6184806;23;20040;-70
2023/12/19 11:23:23;;;;;;;0.50;0.50;;;8.80;99.90;;;;;;6211477;23;20273;-68
2023/12/19 11:26:14;;;;;;;0.35;0.35;;;8.90;99.90;;;;;;6211252;23;20012;-71
2023/12/19 11:28:40;;;;;;;1.38;0.75;;;8.80;99.90;;;;;;6181089;23;20048;-71
2023/12/19 11:31:38;;;;;;;0.47;0.47;;;8.90;99.90;;;;;;6185921;23;20047;-71
2023/12/19 11:34:23;;;;;;;0.28;0.20;;;8.80;99.90;;;;;;6143978;23;20024;-71
2023/12/19 11:37:03;;;;;;;0.63;0.63;;;8.80;99.90;;;;;;6212078;23;20455;-70
2023/12/19 11:39:33;;;;;;;0.57;0.55;;;8.90;99.90;;;;;;6184320;23;20091;-71
2023/12/19 11:41:59;;;;;;;0.13;0.13;;;8.90;99.90;;;;;;6208284;23;20065;-69
2023/12/19 11:44:36;;;;;;;1.70;0.88;;;8.80;99.90;;;;;;6181933;23;20095;-70
2023/12/19 11:47:18;;;;;;;0.50;0.47;;;8.90;99.90;;;;;;6209095;23;20019;-72
2023/12/19 11:49:45;;;;;;;1.80;0.77;;;8.90;99.90;;;;;;6181477;23;20016;-69
2023/12/19 11:52:33;;;;;;;0.40;0.40;;;8.90;99.90;;;;;;6184194;23;20020;-70
2023/12/19 11:55:01;;;;;;;4.18;1.15;;;9.00;99.90;;;;;;6181253;23;20016;-71
2023/12/19 11:57:27;;;;;;;1.00;0.93;;;9.00;99.90;;;;;;6182507;23;20019;-72
2023/12/19 11:59:54;;;;;;;0.20;0.20;;;9.00;99.90;;;;;;6181638;23;20008;-71
2023/12/19 12:02:33;;;;;;;1.63;0.32;;;9.00;99.90;;;;;;6184677;23;20016;-70
2023/12/19 12:05:19;;;;;;;0.40;0.40;;;9.00;99.90;;;;;;6180148;23;20012;-72
2023/12/19 12:07:49;;;;;;;2.13;1.05;;;9.10;99.90;;;;;;6183862;23;20789;-72
2023/12/19 12:10:23;;;;;;;0.17;0.17;;;9.10;99.90;;;;;;6183870;23;20345;-69
2023/12/19 12:12:50;;;;;;;1.58;0.70;;;9.10;99.90;;;;;;6184055;23;20008;-73
2023/12/19 12:15:19;;;;;;;0.70;0.32;;;9.10;99.90;;;;;;6183240;23;20074;-71
2023/12/19 12:17:45;;;;;;;0.57;0.57;;;9.10;99.90;;;;;;6184907;23;20444;-70
2023/12/19 12:20:11;;;;;;;0.80;0.50;;;9.10;99.90;;;;;;6210318;23;20005;-69
2023/12/19 12:22:37;;;;;;;0.22;0.22;;;9.00;99.90;;;;;;6182970;23;20024;-72
2023/12/19 12:25:03;;;;;;;0.10;0.10;;;9.10;99.90;;;;;;6183827;23;20016;-71
2023/12/19 12:27:35;;;;;;;0.52;0.35;;;9.00;99.90;;;;;;5072109;27;20415;-69
2023/12/19 12:30:01;;;;;;;1.45;0.63;;;9.10;99.90;;;;;;5074952;28;20040;-72
2023/12/19 12:32:27;;;;;;;1.98;0.52;;;9.10;99.90;;;;;;5076636;28;20032;-72
2023/12/19 12:34:55;;;;;;;0.35;0.35;;;9.10;99.90;;;;;;5114764;28;20127;-71
2023/12/19 12:37:22;;;;;;;0.43;0.40;;;9.10;99.90;;;;;;5077671;28;20036;-70
2023/12/19 12:39:48;;;;;;;3.83;1.05;;;9.00;99.90;;;;;;5085247;28;20127;-72
2023/12/19 12:42:22;;;;;;;0.73;0.70;;;9.00;99.90;;;;;;5077813;28;20040;-69
2023/12/19 12:44:57;;;;;;;1.45;1.35;;;9.10;99.90;;;;;;5084017;28;20032;-71
2023/12/19 12:47:27;;;;;;;1.80;0.38;;;9.00;99.90;;;;;;5080832;28;20402;-69
2023/12/19 12:50:03;;;;;;;0.40;0.38;;;9.10;99.90;;;;;;5061338;28;20131;-69
2023/12/19 12:52:28;;;;;;;1.02;0.47;;;9.10;99.90;;;;;;5083723;28;20044;-71
2023/12/19 12:55:04;;;;;;;0.88;0.85;;;9.10;99.90;;;;;;5066032;28;20028;-70
2023/12/19 12:57:32;;;;;;;1.08;0.63;;;9.00;99.90;;;;;;5108228;28;20395;-71